sensor_id;sensor_type;location;lat;lon;timestamp;temperature;humidity
32476;DHT22;18929;48.008;10.882;2022-07-06T00:01:03;24.50;73.40
32476;DHT22;18929;48.008;10.882;2022-07-06T00:03:30;24.80;72.30
32476;DHT22;18929;48.008;10.882;2022-07-06T00:05:57;24.90;72.10
32476;DHT22;18929;48.008;10.882;2022-07-06T00:08:24;24.90;72.00
32476;DHT22;18929;48.008;10.882;2022-07-06T00:10:51;24.60;72.70
32476;DHT22;18929;48.008;10.882;2022-07-06T00:13:19;24.80;72.20
32476;DHT22;18929;48.008;10.882;2022-07-06T00:15:46;24.70;72.00
32476;DHT22;18929;48.008;10.882;2022-07-06T00:18:13;24.70;72.60
32476;DHT22;18929;48.008;10.882;2022-07-06T00:20:39;24.40;73.50
32476;DHT22;18929;48.008;10.882;2022-07-06T00:23:06;24.50;73.00
32476;DHT22;18929;48.008;10.882;2022-07-06T00:25:33;24.60;72.70
32476;DHT22;18929;48.008;10.882;2022-07-06T00:28:00;24.70;72.80
32476;DHT22;18929;48.008;10.882;2022-07-06T00:30:28;24.60;72.80
32476;DHT22;18929;48.008;10.882;2022-07-06T00:32:55;24.60;73.80
32476;DHT22;18929;48.008;10.882;2022-07-06T00:35:23;24.70;72.70
32476;DHT22;18929;48.008;10.882;2022-07-06T00:37:51;24.70;72.60
32476;DHT22;18929;48.008;10.882;2022-07-06T00:40:18;24.60;73.00
32476;DHT22;18929;48.008;10.882;2022-07-06T00:42:46;24.50;73.30
32476;DHT22;18929;48.008;10.882;2022-07-06T00:45:14;24.40;73.60
32476;DHT22;18929;48.008;10.882;2022-07-06T00:47:43;24.50;73.60
32476;DHT22;18929;48.008;10.882;2022-07-06T00:50:12;24.40;73.70
32476;DHT22;18929;48.008;10.882;2022-07-06T00:52:45;24.50;73.50
32476;DHT22;18929;48.008;10.882;2022-07-06T00:55:13;24.40;73.80
32476;DHT22;18929;48.008;10.882;2022-07-06T00:57:41;24.30;74.40
32476;DHT22;18929;48.008;10.882;2022-07-06T01:00:11;23.70;75.70
32476;DHT22;18929;48.008;10.882;2022-07-06T01:02:38;23.70;75.80
32476;DHT22;18929;48.008;10.882;2022-07-06T01:05:09;24.00;75.20
32476;DHT22;18929;48.008;10.882;2022-07-06T01:07:37;24.00;75.50
32476;DHT22;18929;48.008;10.882;2022-07-06T01:10:06;23.20;76.90
32476;DHT22;18929;48.008;10.882;2022-07-06T01:12:34;23.00;77.80
32476;DHT22;18929;48.008;10.882;2022-07-06T01:15:03;23.80;76.30
32476;DHT22;18929;48.008;10.882;2022-07-06T01:17:31;23.80;75.70
32476;DHT22;18929;48.008;10.882;2022-07-06T01:20:04;22.90;77.10
32476;DHT22;18929;48.008;10.882;2022-07-06T01:22:31;23.40;76.70
32476;DHT22;18929;48.008;10.882;2022-07-06T01:24:58;23.60;76.90
32476;DHT22;18929;48.008;10.882;2022-07-06T01:27:25;23.70;76.30
32476;DHT22;18929;48.008;10.882;2022-07-06T01:29:52;23.80;76.00
32476;DHT22;18929;48.008;10.882;2022-07-06T01:32:19;23.80;75.90
32476;DHT22;18929;48.008;10.882;2022-07-06T01:34:45;23.80;75.60
32476;DHT22;18929;48.008;10.882;2022-07-06T01:37:14;23.80;75.60
32476;DHT22;18929;48.008;10.882;2022-07-06T01:39:41;23.80;75.60
32476;DHT22;18929;48.008;10.882;2022-07-06T01:42:07;23.60;76.20
32476;DHT22;18929;48.008;10.882;2022-07-06T01:44:34;23.50;76.40
32476;DHT22;18929;48.008;10.882;2022-07-06T01:47:01;23.60;76.20
32476;DHT22;18929;48.008;10.882;2022-07-06T01:49:28;23.50;76.20
32476;DHT22;18929;48.008;10.882;2022-07-06T01:51:55;23.60;76.20
32476;DHT22;18929;48.008;10.882;2022-07-06T01:54:23;23.60;76.00
32476;DHT22;18929;48.008;10.882;2022-07-06T01:56:50;23.60;76.10
32476;DHT22;18929;48.008;10.882;2022-07-06T01:59:17;23.40;76.30
32476;DHT22;18929;48.008;10.882;2022-07-06T02:01:44;23.40;76.60
32476;DHT22;18929;48.008;10.882;2022-07-06T02:04:11;23.30;76.50
32476;DHT22;18929;48.008;10.882;2022-07-06T02:06:37;23.40;76.60
32476;DHT22;18929;48.008;10.882;2022-07-06T02:09:04;23.30;76.60
32476;DHT22;18929;48.008;10.882;2022-07-06T02:11:33;23.30;76.70
32476;DHT22;18929;48.008;10.882;2022-07-06T02:14:00;23.30;76.90
32476;DHT22;18929;48.008;10.882;2022-07-06T02:16:27;23.10;77.20
32476;DHT22;18929;48.008;10.882;2022-07-06T02:18:53;23.10;77.30
32476;DHT22;18929;48.008;10.882;2022-07-06T02:21:20;23.20;77.30
32476;DHT22;18929;48.008;10.882;2022-07-06T02:23:47;23.20;77.20
32476;DHT22;18929;48.008;10.882;2022-07-06T02:26:14;23.00;77.50
32476;DHT22;18929;48.008;10.882;2022-07-06T02:28:42;23.00;77.40
32476;DHT22;18929;48.008;10.882;2022-07-06T02:31:10;23.00;77.40
32476;DHT22;18929;48.008;10.882;2022-07-06T02:33:38;23.00;77.60
32476;DHT22;18929;48.008;10.882;2022-07-06T02:36:05;22.90;77.90
32476;DHT22;18929;48.008;10.882;2022-07-06T02:38:32;22.80;78.20
32476;DHT22;18929;48.008;10.882;2022-07-06T02:40:59;22.80;78.40
32476;DHT22;18929;48.008;10.882;2022-07-06T02:43:26;22.70;78.50
32476;DHT22;18929;48.008;10.882;2022-07-06T02:45:54;22.70;78.30
32476;DHT22;18929;48.008;10.882;2022-07-06T02:48:21;22.50;79.30
32476;DHT22;18929;48.008;10.882;2022-07-06T02:50:48;22.50;79.10
32476;DHT22;18929;48.008;10.882;2022-07-06T02:53:17;22.60;78.70
32476;DHT22;18929;48.008;10.882;2022-07-06T02:55:44;22.50;78.80
32476;DHT22;18929;48.008;10.882;2022-07-06T02:58:11;22.60;78.80
32476;DHT22;18929;48.008;10.882;2022-07-06T03:00:38;22.50;79.00
32476;DHT22;18929;48.008;10.882;2022-07-06T03:03:06;22.40;79.10
32476;DHT22;18929;48.008;10.882;2022-07-06T03:05:34;22.40;79.10
32476;DHT22;18929;48.008;10.882;2022-07-06T03:08:01;22.40;79.10
32476;DHT22;18929;48.008;10.882;2022-07-06T03:10:28;22.40;79.10
32476;DHT22;18929;48.008;10.882;2022-07-06T03:12:54;22.40;79.10
32476;DHT22;18929;48.008;10.882;2022-07-06T03:15:21;22.50;78.60
32476;DHT22;18929;48.008;10.882;2022-07-06T03:17:49;22.40;78.80
32476;DHT22;18929;48.008;10.882;2022-07-06T03:20:17;22.40;79.00
32476;DHT22;18929;48.008;10.882;2022-07-06T03:22:44;22.30;79.20
32476;DHT22;18929;48.008;10.882;2022-07-06T03:25:11;22.20;79.50
32476;DHT22;18929;48.008;10.882;2022-07-06T03:27:38;22.20;79.50
32476;DHT22;18929;48.008;10.882;2022-07-06T03:30:05;22.10;79.50
32476;DHT22;18929;48.008;10.882;2022-07-06T03:32:32;22.20;79.30
32476;DHT22;18929;48.008;10.882;2022-07-06T03:34:59;22.30;79.20
32476;DHT22;18929;48.008;10.882;2022-07-06T03:37:28;22.20;79.10
32476;DHT22;18929;48.008;10.882;2022-07-06T03:39:54;22.10;79.50
32476;DHT22;18929;48.008;10.882;2022-07-06T03:42:21;22.00;79.80
32476;DHT22;18929;48.008;10.882;2022-07-06T03:44:48;22.00;80.10
32476;DHT22;18929;48.008;10.882;2022-07-06T03:47:15;21.90;80.30
32476;DHT22;18929;48.008;10.882;2022-07-06T03:49:42;21.80;80.50
32476;DHT22;18929;48.008;10.882;2022-07-06T03:52:09;21.70;80.90
32476;DHT22;18929;48.008;10.882;2022-07-06T03:54:37;21.80;81.10
32476;DHT22;18929;48.008;10.882;2022-07-06T03:57:04;21.70;81.90
32476;DHT22;18929;48.008;10.882;2022-07-06T03:59:37;21.70;81.30
32476;DHT22;18929;48.008;10.882;2022-07-06T04:02:04;21.70;81.30
32476;DHT22;18929;48.008;10.882;2022-07-06T04:04:31;21.70;81.10
32476;DHT22;18929;48.008;10.882;2022-07-06T04:06:59;21.60;81.40
32476;DHT22;18929;48.008;10.882;2022-07-06T04:09:26;21.60;81.80
32476;DHT22;18929;48.008;10.882;2022-07-06T04:11:55;21.50;82.00
32476;DHT22;18929;48.008;10.882;2022-07-06T04:14:22;21.50;82.00
32476;DHT22;18929;48.008;10.882;2022-07-06T04:16:48;21.50;82.00
32476;DHT22;18929;48.008;10.882;2022-07-06T04:19:15;21.50;82.00
32476;DHT22;18929;48.008;10.882;2022-07-06T04:21:42;21.50;82.10
32476;DHT22;18929;48.008;10.882;2022-07-06T04:24:09;21.40;82.20
32476;DHT22;18929;48.008;10.882;2022-07-06T04:26:37;21.30;82.50
32476;DHT22;18929;48.008;10.882;2022-07-06T04:29:05;21.30;82.70
32476;DHT22;18929;48.008;10.882;2022-07-06T04:31:32;21.30;82.90
32476;DHT22;18929;48.008;10.882;2022-07-06T04:33:59;21.40;82.80
32476;DHT22;18929;48.008;10.882;2022-07-06T04:36:26;21.20;83.00
32476;DHT22;18929;48.008;10.882;2022-07-06T04:38:52;21.30;83.10
32476;DHT22;18929;48.008;10.882;2022-07-06T04:41:19;21.00;84.60
32476;DHT22;18929;48.008;10.882;2022-07-06T04:43:46;21.30;83.50
32476;DHT22;18929;48.008;10.882;2022-07-06T04:46:15;21.30;85.00
32476;DHT22;18929;48.008;10.882;2022-07-06T04:48:42;21.20;84.10
32476;DHT22;18929;48.008;10.882;2022-07-06T04:51:08;21.30;84.60
32476;DHT22;18929;48.008;10.882;2022-07-06T04:53:35;21.10;86.40
32476;DHT22;18929;48.008;10.882;2022-07-06T04:56:03;21.40;84.00
32476;DHT22;18929;48.008;10.882;2022-07-06T04:58:30;21.40;83.50
32476;DHT22;18929;48.008;10.882;2022-07-06T05:00:57;21.40;83.90
32476;DHT22;18929;48.008;10.882;2022-07-06T05:03:25;21.50;83.60
32476;DHT22;18929;48.008;10.882;2022-07-06T05:05:52;21.60;84.20
32476;DHT22;18929;48.008;10.882;2022-07-06T05:08:19;21.10;84.90
32476;DHT22;18929;48.008;10.882;2022-07-06T05:10:47;21.30;84.60
32476;DHT22;18929;48.008;10.882;2022-07-06T05:13:14;20.70;87.10
32476;DHT22;18929;48.008;10.882;2022-07-06T05:15:41;20.70;87.10
32476;DHT22;18929;48.008;10.882;2022-07-06T05:18:08;21.00;87.30
32476;DHT22;18929;48.008;10.882;2022-07-06T05:20:36;21.60;84.70
32476;DHT22;18929;48.008;10.882;2022-07-06T05:23:03;21.80;84.00
32476;DHT22;18929;48.008;10.882;2022-07-06T05:25:30;21.50;84.20
32476;DHT22;18929;48.008;10.882;2022-07-06T05:27:58;21.00;84.40
32476;DHT22;18929;48.008;10.882;2022-07-06T05:30:25;21.50;84.70
32476;DHT22;18929;48.008;10.882;2022-07-06T05:32:52;21.40;84.70
32476;DHT22;18929;48.008;10.882;2022-07-06T05:35:22;21.40;84.70
32476;DHT22;18929;48.008;10.882;2022-07-06T05:37:51;21.80;83.80
32476;DHT22;18929;48.008;10.882;2022-07-06T05:40:17;22.10;82.60
32476;DHT22;18929;48.008;10.882;2022-07-06T05:42:44;20.10;86.30
32476;DHT22;18929;48.008;10.882;2022-07-06T05:45:11;21.30;85.30
32476;DHT22;18929;48.008;10.882;2022-07-06T05:47:38;20.50;85.20
32476;DHT22;18929;48.008;10.882;2022-07-06T05:50:22;21.60;84.60
32476;DHT22;18929;48.008;10.882;2022-07-06T05:52:58;21.70;83.70
32476;DHT22;18929;48.008;10.882;2022-07-06T05:55:25;21.00;84.10
32476;DHT22;18929;48.008;10.882;2022-07-06T05:57:52;21.70;83.60
32476;DHT22;18929;48.008;10.882;2022-07-06T06:00:21;21.50;83.60
32476;DHT22;18929;48.008;10.882;2022-07-06T06:02:48;21.10;85.80
32476;DHT22;18929;48.008;10.882;2022-07-06T06:05:16;20.30;85.70
32476;DHT22;18929;48.008;10.882;2022-07-06T06:07:44;20.90;86.20
32476;DHT22;18929;48.008;10.882;2022-07-06T06:10:14;20.70;85.70
32476;DHT22;18929;48.008;10.882;2022-07-06T06:12:41;21.10;85.00
32476;DHT22;18929;48.008;10.882;2022-07-06T06:15:09;21.80;83.30
32476;DHT22;18929;48.008;10.882;2022-07-06T06:17:37;22.40;81.10
32476;DHT22;18929;48.008;10.882;2022-07-06T06:20:05;20.70;80.90
32476;DHT22;18929;48.008;10.882;2022-07-06T06:22:44;20.40;87.20
32476;DHT22;18929;48.008;10.882;2022-07-06T06:25:47;21.70;83.90
32476;DHT22;18929;48.008;10.882;2022-07-06T06:28:14;22.00;82.60
32476;DHT22;18929;48.008;10.882;2022-07-06T06:30:41;22.00;81.80
32476;DHT22;18929;48.008;10.882;2022-07-06T06:33:10;21.80;79.60
32476;DHT22;18929;48.008;10.882;2022-07-06T06:35:37;21.90;82.40
32476;DHT22;18929;48.008;10.882;2022-07-06T06:38:04;21.60;82.30
32476;DHT22;18929;48.008;10.882;2022-07-06T06:40:31;21.80;82.90
32476;DHT22;18929;48.008;10.882;2022-07-06T06:43:00;21.70;83.00
32476;DHT22;18929;48.008;10.882;2022-07-06T06:45:27;20.70;81.80
32476;DHT22;18929;48.008;10.882;2022-07-06T06:47:53;20.70;83.70
32476;DHT22;18929;48.008;10.882;2022-07-06T06:50:20;21.00;84.80
32476;DHT22;18929;48.008;10.882;2022-07-06T06:52:48;20.70;82.50
32476;DHT22;18929;48.008;10.882;2022-07-06T06:55:15;20.20;85.00
32476;DHT22;18929;48.008;10.882;2022-07-06T06:57:42;20.70;85.70
32476;DHT22;18929;48.008;10.882;2022-07-06T07:00:11;21.10;84.80
32476;DHT22;18929;48.008;10.882;2022-07-06T07:02:39;21.10;84.40
32476;DHT22;18929;48.008;10.882;2022-07-06T07:05:06;21.00;83.60
32476;DHT22;18929;48.008;10.882;2022-07-06T07:07:33;21.00;82.30
32476;DHT22;18929;48.008;10.882;2022-07-06T07:10:02;21.00;84.10
32476;DHT22;18929;48.008;10.882;2022-07-06T07:12:29;20.20;83.80
32476;DHT22;18929;48.008;10.882;2022-07-06T07:14:56;20.20;85.80
32476;DHT22;18929;48.008;10.882;2022-07-06T07:17:24;20.50;86.00
32476;DHT22;18929;48.008;10.882;2022-07-06T07:19:51;20.00;85.60
32476;DHT22;18929;48.008;10.882;2022-07-06T07:22:18;20.70;85.70
32476;DHT22;18929;48.008;10.882;2022-07-06T07:24:45;20.90;84.60
32476;DHT22;18929;48.008;10.882;2022-07-06T07:27:13;20.80;82.10
32476;DHT22;18929;48.008;10.882;2022-07-06T07:29:39;20.70;84.80
32476;DHT22;18929;48.008;10.882;2022-07-06T07:32:07;20.70;85.90
32476;DHT22;18929;48.008;10.882;2022-07-06T07:34:35;20.40;82.50
32476;DHT22;18929;48.008;10.882;2022-07-06T07:37:03;20.70;84.50
32476;DHT22;18929;48.008;10.882;2022-07-06T07:39:29;20.60;83.00
32476;DHT22;18929;48.008;10.882;2022-07-06T07:41:56;20.80;83.50
32476;DHT22;18929;48.008;10.882;2022-07-06T07:44:23;20.40;83.20
32476;DHT22;18929;48.008;10.882;2022-07-06T07:46:52;20.80;83.70
32476;DHT22;18929;48.008;10.882;2022-07-06T07:49:19;20.90;83.20
32476;DHT22;18929;48.008;10.882;2022-07-06T07:51:48;20.50;83.10
32476;DHT22;18929;48.008;10.882;2022-07-06T07:54:15;20.70;83.00
32476;DHT22;18929;48.008;10.882;2022-07-06T07:56:42;21.00;81.90
32476;DHT22;18929;48.008;10.882;2022-07-06T07:59:09;21.10;82.60
32476;DHT22;18929;48.008;10.882;2022-07-06T08:01:36;21.20;82.10
32476;DHT22;18929;48.008;10.882;2022-07-06T08:04:04;21.40;82.00
32476;DHT22;18929;48.008;10.882;2022-07-06T08:06:30;20.90;80.10
32476;DHT22;18929;48.008;10.882;2022-07-06T08:08:59;20.90;81.60
32476;DHT22;18929;48.008;10.882;2022-07-06T08:11:26;21.10;82.90
32476;DHT22;18929;48.008;10.882;2022-07-06T08:13:53;21.00;81.30
32476;DHT22;18929;48.008;10.882;2022-07-06T08:16:20;21.30;82.70
32476;DHT22;18929;48.008;10.882;2022-07-06T08:18:46;21.00;83.00
32476;DHT22;18929;48.008;10.882;2022-07-06T08:21:13;21.00;83.40
32476;DHT22;18929;48.008;10.882;2022-07-06T08:23:40;20.60;83.80
32476;DHT22;18929;48.008;10.882;2022-07-06T08:26:08;20.80;84.10
32476;DHT22;18929;48.008;10.882;2022-07-06T08:28:35;20.40;86.00
32476;DHT22;18929;48.008;10.882;2022-07-06T08:31:02;20.30;85.90
32476;DHT22;18929;48.008;10.882;2022-07-06T08:33:29;20.40;85.90
32476;DHT22;18929;48.008;10.882;2022-07-06T08:35:56;20.60;86.00
32476;DHT22;18929;48.008;10.882;2022-07-06T08:38:23;20.60;83.00
32476;DHT22;18929;48.008;10.882;2022-07-06T08:40:50;20.90;84.40
32476;DHT22;18929;48.008;10.882;2022-07-06T08:43:19;20.60;85.10
32476;DHT22;18929;48.008;10.882;2022-07-06T08:45:46;20.70;84.70
32476;DHT22;18929;48.008;10.882;2022-07-06T08:48:14;21.00;83.50
32476;DHT22;18929;48.008;10.882;2022-07-06T08:50:42;20.90;84.70
32476;DHT22;18929;48.008;10.882;2022-07-06T08:53:09;20.90;84.60
32476;DHT22;18929;48.008;10.882;2022-07-06T08:55:36;21.00;84.00
32476;DHT22;18929;48.008;10.882;2022-07-06T08:58:03;21.20;84.40
32476;DHT22;18929;48.008;10.882;2022-07-06T09:00:34;21.40;83.20
32476;DHT22;18929;48.008;10.882;2022-07-06T09:03:01;21.40;83.00
32476;DHT22;18929;48.008;10.882;2022-07-06T09:05:29;21.30;86.10
32476;DHT22;18929;48.008;10.882;2022-07-06T09:07:57;21.60;83.70
32476;DHT22;18929;48.008;10.882;2022-07-06T09:10:23;22.00;81.60
32476;DHT22;18929;48.008;10.882;2022-07-06T09:12:51;21.50;80.90
32476;DHT22;18929;48.008;10.882;2022-07-06T09:15:18;21.50;84.20
32476;DHT22;18929;48.008;10.882;2022-07-06T09:17:46;20.90;83.00
32476;DHT22;18929;48.008;10.882;2022-07-06T09:20:14;21.20;83.60
32476;DHT22;18929;48.008;10.882;2022-07-06T09:22:41;21.00;80.80
32476;DHT22;18929;48.008;10.882;2022-07-06T09:25:10;21.40;81.80
32476;DHT22;18929;48.008;10.882;2022-07-06T09:27:37;21.40;80.80
32476;DHT22;18929;48.008;10.882;2022-07-06T09:30:06;21.70;82.30
32476;DHT22;18929;48.008;10.882;2022-07-06T09:32:38;21.90;80.20
32476;DHT22;18929;48.008;10.882;2022-07-06T09:35:08;21.90;79.70
32476;DHT22;18929;48.008;10.882;2022-07-06T09:37:35;21.40;78.90
32476;DHT22;18929;48.008;10.882;2022-07-06T09:40:15;21.30;79.40
32476;DHT22;18929;48.008;10.882;2022-07-06T09:42:43;21.60;80.80
32476;DHT22;18929;48.008;10.882;2022-07-06T09:45:10;21.60;79.70
32476;DHT22;18929;48.008;10.882;2022-07-06T09:47:37;21.90;80.70
32476;DHT22;18929;48.008;10.882;2022-07-06T09:50:07;21.90;80.30
32476;DHT22;18929;48.008;10.882;2022-07-06T09:52:34;22.10;80.50
32476;DHT22;18929;48.008;10.882;2022-07-06T09:55:06;21.70;82.80
32476;DHT22;18929;48.008;10.882;2022-07-06T09:57:52;21.80;79.60
32476;DHT22;18929;48.008;10.882;2022-07-06T10:00:19;22.20;79.20
32476;DHT22;18929;48.008;10.882;2022-07-06T10:02:47;22.10;80.50
32476;DHT22;18929;48.008;10.882;2022-07-06T10:05:17;22.20;80.30
32476;DHT22;18929;48.008;10.882;2022-07-06T10:07:45;21.90;79.10
32476;DHT22;18929;48.008;10.882;2022-07-06T10:10:16;22.10;80.50
32476;DHT22;18929;48.008;10.882;2022-07-06T10:12:44;22.00;80.50
32476;DHT22;18929;48.008;10.882;2022-07-06T10:15:15;21.80;81.30
32476;DHT22;18929;48.008;10.882;2022-07-06T10:17:44;21.90;80.90
32476;DHT22;18929;48.008;10.882;2022-07-06T10:20:12;22.00;79.50
32476;DHT22;18929;48.008;10.882;2022-07-06T10:22:41;22.00;79.10
32476;DHT22;18929;48.008;10.882;2022-07-06T10:25:08;22.10;80.30
32476;DHT22;18929;48.008;10.882;2022-07-06T10:27:35;22.40;79.00
32476;DHT22;18929;48.008;10.882;2022-07-06T10:30:03;22.50;76.60
32476;DHT22;18929;48.008;10.882;2022-07-06T10:32:30;22.30;75.60
32476;DHT22;18929;48.008;10.882;2022-07-06T10:34:57;22.20;77.90
32476;DHT22;18929;48.008;10.882;2022-07-06T10:37:25;22.30;75.30
32476;DHT22;18929;48.008;10.882;2022-07-06T10:39:54;22.40;74.30
32476;DHT22;18929;48.008;10.882;2022-07-06T10:42:42;22.30;78.00
32476;DHT22;18929;48.008;10.882;2022-07-06T10:45:13;22.30;76.10
32476;DHT22;18929;48.008;10.882;2022-07-06T10:47:41;22.50;76.30
32476;DHT22;18929;48.008;10.882;2022-07-06T10:50:08;22.50;74.20
32476;DHT22;18929;48.008;10.882;2022-07-06T10:52:48;22.20;73.80
32476;DHT22;18929;48.008;10.882;2022-07-06T10:55:31;22.20;76.10
32476;DHT22;18929;48.008;10.882;2022-07-06T10:57:59;22.50;77.90
32476;DHT22;18929;48.008;10.882;2022-07-06T11:00:33;22.30;78.00
32476;DHT22;18929;48.008;10.882;2022-07-06T11:03:30;22.20;78.50
32476;DHT22;18929;48.008;10.882;2022-07-06T11:05:58;22.20;77.20
32476;DHT22;18929;48.008;10.882;2022-07-06T11:08:47;22.20;75.10
32476;DHT22;18929;48.008;10.882;2022-07-06T11:11:17;22.30;77.70
32476;DHT22;18929;48.008;10.882;2022-07-06T11:14:01;22.40;75.90
32476;DHT22;18929;48.008;10.882;2022-07-06T11:16:30;22.60;75.50
32476;DHT22;18929;48.008;10.882;2022-07-06T11:19:02;22.80;75.20
32476;DHT22;18929;48.008;10.882;2022-07-06T11:21:35;23.00;75.90
32476;DHT22;18929;48.008;10.882;2022-07-06T11:24:04;23.10;74.60
32476;DHT22;18929;48.008;10.882;2022-07-06T11:26:33;22.70;74.10
32476;DHT22;18929;48.008;10.882;2022-07-06T11:29:04;22.90;73.50
32476;DHT22;18929;48.008;10.882;2022-07-06T11:31:36;23.00;72.50
32476;DHT22;18929;48.008;10.882;2022-07-06T11:34:04;23.20;74.00
32476;DHT22;18929;48.008;10.882;2022-07-06T11:36:34;23.50;75.00
32476;DHT22;18929;48.008;10.882;2022-07-06T11:39:02;22.90;73.00
32476;DHT22;18929;48.008;10.882;2022-07-06T11:41:32;22.80;74.00
32476;DHT22;18929;48.008;10.882;2022-07-06T11:43:59;23.00;71.40
32476;DHT22;18929;48.008;10.882;2022-07-06T11:46:28;23.20;74.60
32476;DHT22;18929;48.008;10.882;2022-07-06T11:48:57;22.90;76.30
32476;DHT22;18929;48.008;10.882;2022-07-06T11:51:25;22.80;75.90
32476;DHT22;18929;48.008;10.882;2022-07-06T11:53:54;22.70;77.00
32476;DHT22;18929;48.008;10.882;2022-07-06T11:56:23;22.60;77.40
32476;DHT22;18929;48.008;10.882;2022-07-06T11:58:54;22.70;77.00
32476;DHT22;18929;48.008;10.882;2022-07-06T12:01:22;22.70;75.10
32476;DHT22;18929;48.008;10.882;2022-07-06T12:03:51;23.00;75.40
32476;DHT22;18929;48.008;10.882;2022-07-06T12:06:19;23.30;73.30
32476;DHT22;18929;48.008;10.882;2022-07-06T12:08:48;23.00;72.30
32476;DHT22;18929;48.008;10.882;2022-07-06T12:11:23;23.20;74.60
32476;DHT22;18929;48.008;10.882;2022-07-06T12:13:51;23.30;73.90
32476;DHT22;18929;48.008;10.882;2022-07-06T12:16:20;23.30;72.60
32476;DHT22;18929;48.008;10.882;2022-07-06T12:18:49;23.40;74.30
32476;DHT22;18929;48.008;10.882;2022-07-06T12:21:18;23.40;73.60
32476;DHT22;18929;48.008;10.882;2022-07-06T12:23:49;23.70;73.10
32476;DHT22;18929;48.008;10.882;2022-07-06T12:26:18;23.80;73.70
32476;DHT22;18929;48.008;10.882;2022-07-06T12:28:46;23.80;73.50
32476;DHT22;18929;48.008;10.882;2022-07-06T12:31:35;23.70;72.70
32476;DHT22;18929;48.008;10.882;2022-07-06T12:34:03;23.60;69.50
32476;DHT22;18929;48.008;10.882;2022-07-06T12:36:31;23.90;73.00
32476;DHT22;18929;48.008;10.882;2022-07-06T12:38:58;23.80;73.00
32476;DHT22;18929;48.008;10.882;2022-07-06T12:41:30;23.90;73.00
32476;DHT22;18929;48.008;10.882;2022-07-06T12:44:06;24.00;73.20
32476;DHT22;18929;48.008;10.882;2022-07-06T12:46:36;23.80;70.00
32476;DHT22;18929;48.008;10.882;2022-07-06T12:49:10;24.10;71.50
32476;DHT22;18929;48.008;10.882;2022-07-06T12:51:49;24.00;68.10
32476;DHT22;18929;48.008;10.882;2022-07-06T12:54:16;24.10;72.90
32476;DHT22;18929;48.008;10.882;2022-07-06T12:56:57;24.40;71.50
32476;DHT22;18929;48.008;10.882;2022-07-06T12:59:24;24.50;70.00
32476;DHT22;18929;48.008;10.882;2022-07-06T13:01:53;24.10;71.40
32476;DHT22;18929;48.008;10.882;2022-07-06T13:04:22;24.00;68.80
32476;DHT22;18929;48.008;10.882;2022-07-06T13:06:49;24.30;68.80
32476;DHT22;18929;48.008;10.882;2022-07-06T13:09:16;24.30;66.60
32476;DHT22;18929;48.008;10.882;2022-07-06T13:11:44;23.80;65.00
32476;DHT22;18929;48.008;10.882;2022-07-06T13:14:11;23.90;70.60
32476;DHT22;18929;48.008;10.882;2022-07-06T13:16:38;24.10;70.70
32476;DHT22;18929;48.008;10.882;2022-07-06T13:19:06;24.20;64.90
32476;DHT22;18929;48.008;10.882;2022-07-06T13:21:33;24.50;70.40
32476;DHT22;18929;48.008;10.882;2022-07-06T13:24:00;24.90;69.00
32476;DHT22;18929;48.008;10.882;2022-07-06T13:26:27;24.90;69.30
32476;DHT22;18929;48.008;10.882;2022-07-06T13:28:54;25.10;68.40
32476;DHT22;18929;48.008;10.882;2022-07-06T13:31:22;25.20;68.10
32476;DHT22;18929;48.008;10.882;2022-07-06T13:33:49;25.20;69.10
32476;DHT22;18929;48.008;10.882;2022-07-06T13:36:17;25.10;68.50
32476;DHT22;18929;48.008;10.882;2022-07-06T13:38:44;24.60;67.40
32476;DHT22;18929;48.008;10.882;2022-07-06T13:41:11;25.10;68.50
32476;DHT22;18929;48.008;10.882;2022-07-06T13:43:38;25.60;65.10
32476;DHT22;18929;48.008;10.882;2022-07-06T13:46:06;25.60;65.70
32476;DHT22;18929;48.008;10.882;2022-07-06T13:48:34;25.30;65.80
32476;DHT22;18929;48.008;10.882;2022-07-06T13:51:01;24.60;66.80
32476;DHT22;18929;48.008;10.882;2022-07-06T13:53:29;25.20;69.20
32476;DHT22;18929;48.008;10.882;2022-07-06T13:55:57;25.50;67.00
32476;DHT22;18929;48.008;10.882;2022-07-06T13:58:24;25.20;69.10
32476;DHT22;18929;48.008;10.882;2022-07-06T14:00:50;25.30;68.50
32476;DHT22;18929;48.008;10.882;2022-07-06T14:03:17;25.40;62.50
32476;DHT22;18929;48.008;10.882;2022-07-06T14:05:47;25.00;62.60
32476;DHT22;18929;48.008;10.882;2022-07-06T14:08:14;25.30;64.50
32476;DHT22;18929;48.008;10.882;2022-07-06T14:10:42;24.70;63.40
32476;DHT22;18929;48.008;10.882;2022-07-06T14:13:09;25.10;66.10
32476;DHT22;18929;48.008;10.882;2022-07-06T14:15:36;24.60;64.20
32476;DHT22;18929;48.008;10.882;2022-07-06T14:18:03;24.40;65.90
32476;DHT22;18929;48.008;10.882;2022-07-06T14:20:30;24.90;68.50
32476;DHT22;18929;48.008;10.882;2022-07-06T14:22:56;25.00;68.70
32476;DHT22;18929;48.008;10.882;2022-07-06T14:25:23;25.30;64.90
32476;DHT22;18929;48.008;10.882;2022-07-06T14:27:52;24.40;62.90
32476;DHT22;18929;48.008;10.882;2022-07-06T14:30:19;24.90;66.90
32476;DHT22;18929;48.008;10.882;2022-07-06T14:32:45;25.80;65.00
32476;DHT22;18929;48.008;10.882;2022-07-06T14:35:12;26.00;62.10
32476;DHT22;18929;48.008;10.882;2022-07-06T14:37:39;26.10;60.50
32476;DHT22;18929;48.008;10.882;2022-07-06T14:40:07;26.00;62.10
32476;DHT22;18929;48.008;10.882;2022-07-06T14:42:35;25.10;64.30
32476;DHT22;18929;48.008;10.882;2022-07-06T14:45:03;24.70;61.70
32476;DHT22;18929;48.008;10.882;2022-07-06T14:47:30;25.30;67.80
32476;DHT22;18929;48.008;10.882;2022-07-06T14:49:57;24.90;64.60
32476;DHT22;18929;48.008;10.882;2022-07-06T14:52:24;25.30;65.50
32476;DHT22;18929;48.008;10.882;2022-07-06T14:54:51;26.10;63.90
32476;DHT22;18929;48.008;10.882;2022-07-06T14:57:17;26.10;63.20
32476;DHT22;18929;48.008;10.882;2022-07-06T14:59:45;26.60;64.60
32476;DHT22;18929;48.008;10.882;2022-07-06T15:02:13;25.80;61.70
32476;DHT22;18929;48.008;10.882;2022-07-06T15:04:40;26.50;63.90
32476;DHT22;18929;48.008;10.882;2022-07-06T15:07:07;25.50;60.00
32476;DHT22;18929;48.008;10.882;2022-07-06T15:09:34;26.30;65.20
32476;DHT22;18929;48.008;10.882;2022-07-06T15:12:01;26.10;60.10
32476;DHT22;18929;48.008;10.882;2022-07-06T15:14:28;26.20;65.40
32476;DHT22;18929;48.008;10.882;2022-07-06T15:16:55;26.50;60.20
32476;DHT22;18929;48.008;10.882;2022-07-06T15:19:25;26.50;64.30
32476;DHT22;18929;48.008;10.882;2022-07-06T15:21:53;25.10;59.00